Blanchard, Louisiana
Current Conditions -  °F | °C
As of 8:53 AM on Wednesday 26 Nov 2014 (Local Time) from KDTN Reporting Station
Clear Clear  
Wind Chill: 52°   Ceiling: Unl
Heat Index: 52°   Visibility: 10mi
Dew Point: 32°   Wind: 12mph
Humidity: 47%   Direction: 220°SW
Pressure: 30.12"   Gusts: NA
Location:  32.58°N, 93.89°W
Report Text: KDTN 261453Z 22010KT 10SM CLR 11/00 A3012 RMK AO2 SLP199 T01110000 53004
Loading
Personal Weather Stations






























Interactive Weather Map New forecast layout! Learn more

10-Day Weather Forecast

Advertisements
Track Severe Weather on mobile